Hovedside
METAR-TAF:

METAR-TAF

Lufthavner :

Lewiston-Nez Perce County Airport

Lewiston, Idaho, USA

breddegrad: 46-22-29N, lengdegrad: 117-00-52W, høyde over havet: 438 m

Gjeldene værobservasjon

Denne rapporten ble laget for 34 minutter siden, klokken 16:56 UTC
Flau vind
Temperatur 11°C
Luftfuktighet 50%
Trykk 1021 hPa
Sikt: 16.1 km
Skyfri himmel

METAR: KLWS 091656Z 00000KT 10SM CLR 11/01 A3015 RMK AO2 SLP213 T01060011

Tid: 10:30 (17:30 UTC)

Varsel

Denne rapporten ble laget for 6 timer og 5 minutter siden, klokken 11:25 UTC
Varsel gyldig fra 09. klokken 12 UTC til 10. klokken 12 UTC
Vind 5 kt fra skiftende retning
Sikt: 10 km
Få skyer i en høyde av 30000 ft

TAF: KLWS 091125Z 0912/1012 VRB05KT P6SM FEW300

Værobservasjoner og værvarsel for over 4000 flyplasser (METAR- og TAF-rapporter).

Tilgjengelige stasjoner er representert av de røde og gule prikkene på kartet.

Hold musepekeren over prikken for å se navnet på stasjonen.

Klikk så for å se værobservasjoner og -varsler.

For å forandre kartet kan du klikke på den grønne knappen med svart kryss for å zoome inn, på den grønne knappen med strek for å zoome ut, eller på de grønne pilene for å se tilstøtende kart.


METAR-TAF: